Time;durP1;ratioP1;P1;durP2;ratioP2;P2;SDS_P1;SDS_P2;PMS_P1;PMS_P2;Temp;Humidity;BMP_temperature;BMP_pressure;BME280_temperature;BME280_humidity;BME280_pressure;Samples;Min_cycle;Max_cycle;Signal;HPM_P1;HPM_P2
2022/07/30 00:00:00;;;;;;;6.45;2.60;;;19.90;99.90;;;;;;5032843;28;20055;-77
2022/07/30 00:02:26;;;;;;;7.47;2.42;;;19.80;99.90;;;;;;5029614;28;20119;-78
2022/07/30 00:04:51;;;;;;;6.78;2.45;;;19.80;99.90;;;;;;5048669;28;20618;-78
2022/07/30 00:07:17;;;;;;;4.70;2.60;;;19.80;99.90;;;;;;5031764;28;20029;-77
2022/07/30 00:09:43;;;;;;;7.07;2.67;;;19.90;99.90;;;;;;5031006;28;20493;-78
2022/07/30 00:12:08;;;;;;;6.18;2.75;;;19.80;99.90;;;;;;5048570;28;20036;-77
2022/07/30 00:14:35;;;;;;;7.13;3.00;;;19.90;99.90;;;;;;5048082;28;20017;-77
2022/07/30 00:17:02;;;;;;;6.28;3.35;;;19.90;99.90;;;;;;5031216;28;20037;-78
2022/07/30 00:19:27;;;;;;;10.20;3.13;;;19.90;99.90;;;;;;5046020;28;20033;-77
2022/07/30 00:21:53;;;;;;;5.43;2.60;;;19.80;99.90;;;;;;5047660;28;20032;-78
2022/07/30 00:24:20;;;;;;;5.22;2.53;;;19.80;99.90;;;;;;5030107;28;20044;-78
2022/07/30 00:26:45;;;;;;;4.70;2.58;;;19.80;99.90;;;;;;5028289;28;20021;-78
2022/07/30 00:29:11;;;;;;;5.65;2.50;;;19.80;99.90;;;;;;5031117;28;20171;-78
2022/07/30 00:31:37;;;;;;;8.32;3.00;;;19.80;99.90;;;;;;5052673;28;20040;-78
2022/07/30 00:34:03;;;;;;;4.13;2.28;;;19.80;99.90;;;;;;5045755;28;20029;-79
2022/07/30 00:36:29;;;;;;;4.32;2.53;;;19.80;99.90;;;;;;5046726;28;20044;-78
2022/07/30 00:38:55;;;;;;;6.50;3.10;;;19.80;99.90;;;;;;5030273;28;20082;-78
2022/07/30 00:41:20;;;;;;;6.75;2.60;;;19.70;99.90;;;;;;5049306;28;20032;-79
2022/07/30 00:43:46;;;;;;;5.85;2.50;;;19.70;99.90;;;;;;5045835;28;20033;-79
2022/07/30 00:46:13;;;;;;;6.30;2.50;;;19.80;99.90;;;;;;5030336;28;20029;-79
2022/07/30 00:48:40;;;;;;;7.20;3.03;;;19.80;99.90;;;;;;5030556;28;20107;-78
2022/07/30 00:51:06;;;;;;;6.10;3.10;;;19.70;99.90;;;;;;5029725;28;20068;-80
2022/07/30 00:53:33;;;;;;;5.88;2.58;;;19.70;99.90;;;;;;5047296;28;20051;-79
2022/07/30 00:55:59;;;;;;;7.18;2.17;;;19.70;99.90;;;;;;5047442;28;20029;-79
2022/07/30 00:58:24;;;;;;;6.68;2.65;;;19.70;99.90;;;;;;5045454;28;20032;-79
2022/07/30 01:00:50;;;;;;;4.20;2.22;;;19.70;99.90;;;;;;5029420;28;20025;-79
2022/07/30 01:03:16;;;;;;;5.55;2.40;;;19.70;99.90;;;;;;5048191;28;20416;-79
2022/07/30 01:05:41;;;;;;;6.97;2.95;;;19.70;99.90;;;;;;5048402;28;20032;-80
2022/07/30 01:08:08;;;;;;;6.25;2.45;;;19.70;99.90;;;;;;5030296;28;20104;-78
2022/07/30 01:10:34;;;;;;;8.30;2.47;;;19.70;99.90;;;;;;5028034;28;20512;-79
2022/07/30 01:13:00;;;;;;;6.30;3.10;;;19.70;99.90;;;;;;5029708;28;20118;-78
2022/07/30 01:15:27;;;;;;;5.55;2.42;;;19.70;99.90;;;;;;5028861;28;20489;-80
2022/07/30 01:17:58;;;;;;;6.30;2.30;;;19.70;99.90;;;;;;5046431;28;20028;-78
2022/07/30 01:20:48;;;;;;;9.43;2.70;;;19.70;99.90;;;;;;5049060;28;20032;-79
2022/07/30 01:23:17;;;;;;;5.80;2.47;;;19.60;99.90;;;;;;5049255;28;20152;-78
2022/07/30 01:25:51;;;;;;;7.70;2.80;;;19.60;99.90;;;;;;5013951;28;20036;-79
2022/07/30 01:28:22;;;;;;;6.03;2.53;;;19.60;99.90;;;;;;5007371;28;20033;-80
2022/07/30 01:30:49;;;;;;;5.28;2.38;;;19.60;99.90;;;;;;5026164;28;20405;-79
2022/07/30 01:33:16;;;;;;;6.70;2.55;;;19.60;99.90;;;;;;5029556;28;20143;-79
2022/07/30 01:35:45;;;;;;;6.57;2.50;;;19.60;99.90;;;;;;5049855;28;20037;-79
2022/07/30 01:38:13;;;;;;;5.57;2.70;;;19.60;99.90;;;;;;5017222;28;20527;-79
2022/07/30 01:40:41;;;;;;;7.90;2.97;;;19.50;99.90;;;;;;5032630;28;20032;-78
2022/07/30 01:43:08;;;;;;;6.40;2.50;;;19.50;99.90;;;;;;5049404;28;20032;-81
2022/07/30 01:45:34;;;;;;;8.40;2.28;;;19.50;99.90;;;;;;5049992;28;20025;-78
2022/07/30 01:48:04;;;;;;;7.30;2.53;;;19.50;99.90;;;;;;5033106;28;20029;-79
2022/07/30 01:50:31;;;;;;;5.93;2.67;;;19.50;99.90;;;;;;5049711;28;20041;-78
2022/07/30 01:52:59;;;;;;;9.20;2.92;;;19.50;99.90;;;;;;5017506;28;20055;-78
2022/07/30 01:55:34;;;;;;;9.75;2.38;;;19.40;99.90;;;;;;5049983;28;20456;-79
2022/07/30 01:58:02;;;;;;;7.57;2.55;;;19.40;99.90;;;;;;5049129;28;20025;-79
2022/07/30 02:00:29;;;;;;;3.78;2.58;;;19.40;99.90;;;;;;5032376;28;20036;-78
2022/07/30 02:02:56;;;;;;;5.55;2.60;;;19.40;99.90;;;;;;5048460;28;20025;-78
2022/07/30 02:05:25;;;;;;;8.15;2.75;;;19.30;99.90;;;;;;5051489;28;20067;-79
2022/07/30 02:08:11;;;;;;;9.23;2.75;;;19.40;99.90;;;;;;5031406;28;20025;-79
2022/07/30 02:11:05;;;;;;;6.13;2.28;;;19.30;99.90;;;;;;5051571;28;20451;-78
2022/07/30 02:13:32;;;;;;;6.43;2.72;;;19.40;99.90;;;;;;5046869;28;20028;-79
2022/07/30 02:16:08;;;;;;;6.68;2.60;;;19.30;99.90;;;;;;5053315;28;20524;-79
2022/07/30 02:18:43;;;;;;;7.07;2.42;;;19.30;99.90;;;;;;5051637;28;20021;-79
2022/07/30 02:21:10;;;;;;;6.40;2.40;;;19.30;99.90;;;;;;5051221;28;20574;-76
2022/07/30 02:23:43;;;;;;;6.18;2.20;;;19.30;99.90;;;;;;5032165;28;20606;-77
2022/07/30 02:26:17;;;;;;;9.85;2.97;;;19.30;99.90;;;;;;5031536;28;20036;-76
2022/07/30 02:28:47;;;;;;;6.07;2.78;;;19.30;99.90;;;;;;5032666;28;20119;-77
2022/07/30 02:31:18;;;;;;;6.72;2.85;;;19.20;99.90;;;;;;5051998;28;20099;-77
2022/07/30 02:33:45;;;;;;;8.88;3.55;;;19.20;99.90;;;;;;5030921;28;20059;-76
2022/07/30 02:36:12;;;;;;;5.80;2.10;;;19.20;99.90;;;;;;5032090;28;20765;-77
2022/07/30 02:38:39;;;;;;;4.50;2.47;;;19.20;99.90;;;;;;5049129;28;20032;-79
2022/07/30 02:41:08;;;;;;;6.10;2.20;;;19.20;99.90;;;;;;5032911;28;20504;-78
2022/07/30 02:43:35;;;;;;;7.65;3.25;;;19.20;99.90;;;;;;5031893;28;20065;-78
2022/07/30 02:46:03;;;;;;;6.45;2.53;;;19.20;99.90;;;;;;5032059;28;20044;-78
2022/07/30 02:48:30;;;;;;;7.32;2.30;;;19.20;99.90;;;;;;5031780;28;20832;-79
2022/07/30 02:50:57;;;;;;;7.63;2.92;;;19.20;99.90;;;;;;5031416;28;20029;-78
2022/07/30 02:53:24;;;;;;;6.32;2.63;;;19.20;99.90;;;;;;5031465;28;20052;-78
2022/07/30 02:55:52;;;;;;;6.32;2.45;;;19.20;99.90;;;;;;5046523;28;20021;-78
2022/07/30 02:58:22;;;;;;;6.72;2.67;;;19.20;99.90;;;;;;5015645;28;20024;-77
2022/07/30 03:00:51;;;;;;;5.43;2.47;;;19.20;99.90;;;;;;5031523;28;20035;-77
2022/07/30 03:03:17;;;;;;;7.07;2.55;;;19.20;99.90;;;;;;5048374;28;20104;-77
2022/07/30 03:05:45;;;;;;;8.10;2.80;;;19.10;99.90;;;;;;5049218;28;20114;-78
2022/07/30 03:08:11;;;;;;;7.95;2.40;;;19.10;99.90;;;;;;5031920;28;20540;-77
2022/07/30 03:10:39;;;;;;;6.22;2.58;;;19.10;99.90;;;;;;5050425;28;20412;-77
2022/07/30 03:13:06;;;;;;;7.78;2.55;;;19.10;99.90;;;;;;5052217;28;20037;-78
2022/07/30 03:15:36;;;;;;;4.07;2.28;;;19.10;99.90;;;;;;5016268;28;20036;-78
2022/07/30 03:18:04;;;;;;;8.07;2.45;;;19.10;99.90;;;;;;5029011;28;20382;-79
2022/07/30 03:20:32;;;;;;;7.55;2.53;;;19.10;99.90;;;;;;5052132;28;20119;-78
2022/07/30 03:23:01;;;;;;;6.68;2.50;;;19.10;99.90;;;;;;5027996;28;20028;-79
2022/07/30 03:25:32;;;;;;;5.03;2.58;;;19.10;99.90;;;;;;5029246;28;20040;-79
2022/07/30 03:28:00;;;;;;;4.63;2.58;;;19.10;99.90;;;;;;5047609;28;20047;-77
2022/07/30 03:30:27;;;;;;;5.22;2.38;;;19.00;99.90;;;;;;5049914;28;20497;-78
2022/07/30 03:32:54;;;;;;;4.55;2.42;;;19.00;99.90;;;;;;5049162;28;20044;-78
2022/07/30 03:35:23;;;;;;;6.07;2.80;;;18.90;99.90;;;;;;5048722;28;20112;-78
2022/07/30 03:37:50;;;;;;;5.32;2.35;;;18.90;99.90;;;;;;5028543;28;20093;-77
2022/07/30 03:40:17;;;;;;;4.70;2.42;;;18.90;99.90;;;;;;5034377;28;20036;-80
2022/07/30 03:42:44;;;;;;;5.57;2.90;;;18.90;99.90;;;;;;5031982;28;20116;-78
2022/07/30 03:45:14;;;;;;;6.07;2.40;;;18.80;99.90;;;;;;5031748;28;20040;-79
2022/07/30 03:47:41;;;;;;;4.75;2.45;;;18.80;99.90;;;;;;5049702;28;20060;-80
2022/07/30 03:50:09;;;;;;;6.32;2.28;;;18.90;99.90;;;;;;5053920;28;20039;-78
2022/07/30 03:52:39;;;;;;;8.43;3.08;;;18.90;99.90;;;;;;5051474;28;20021;-78
2022/07/30 03:55:07;;;;;;;7.18;2.55;;;18.80;99.90;;;;;;5052841;28;20035;-78
2022/07/30 03:57:33;;;;;;;8.43;2.55;;;18.80;99.90;;;;;;5051528;28;20029;-79
2022/07/30 03:59:58;;;;;;;4.43;2.60;;;18.80;99.90;;;;;;5031726;28;20031;-78
2022/07/30 04:02:24;;;;;;;4.35;2.28;;;18.80;99.90;;;;;;5050170;28;20032;-79
2022/07/30 04:04:50;;;;;;;6.95;2.65;;;18.90;99.90;;;;;;5015543;28;20087;-79
2022/07/30 04:07:16;;;;;;;5.07;2.40;;;18.90;99.90;;;;;;5032151;28;20035;-79
2022/07/30 04:09:42;;;;;;;5.20;2.55;;;18.90;99.90;;;;;;5055336;28;20029;-76
2022/07/30 04:12:08;;;;;;;6.50;3.42;;;18.90;99.90;;;;;;5049497;28;20028;-78
2022/07/30 04:14:40;;;;;;;6.47;3.05;;;18.90;99.90;;;;;;5032623;28;20033;-77
2022/07/30 04:17:16;;;;;;;4.40;2.20;;;18.90;99.90;;;;;;5033994;28;20036;-79
2022/07/30 04:19:48;;;;;;;5.85;2.60;;;18.90;99.90;;;;;;5033220;28;20158;-77
2022/07/30 04:22:19;;;;;;;4.55;2.10;;;18.90;99.90;;;;;;5048174;28;20435;-77
2022/07/30 04:24:45;;;;;;;;;;;18.90;99.90;;;;;;5032253;28;20056;-78
2022/07/30 04:27:12;;;;;;;6.68;2.60;;;18.90;99.90;;;;;;5031263;28;20376;-81
2022/07/30 04:29:41;;;;;;;4.95;2.53;;;18.90;99.90;;;;;;5047071;28;20033;-78
2022/07/30 04:32:08;;;;;;;4.47;2.17;;;18.90;99.90;;;;;;5049101;28;20032;-77
2022/07/30 04:34:34;;;;;;;6.50;2.50;;;18.90;99.90;;;;;;5049047;28;20033;-77
2022/07/30 04:37:00;;;;;;;7.03;2.50;;;18.90;99.90;;;;;;5030741;28;20034;-79
2022/07/30 04:39:26;;;;;;;4.75;2.50;;;18.90;99.90;;;;;;5046082;28;20043;-77
2022/07/30 04:41:52;;;;;;;4.65;2.42;;;18.90;99.90;;;;;;5031556;28;20104;-78
2022/07/30 04:44:18;;;;;;;4.20;2.10;;;18.90;99.90;;;;;;5046583;28;20036;-78
2022/07/30 04:46:45;;;;;;;4.25;2.40;;;18.90;99.90;;;;;;5015756;28;20557;-78
2022/07/30 04:49:12;;;;;;;4.00;2.60;;;18.80;99.90;;;;;;5048928;28;20044;-79
2022/07/30 04:51:39;;;;;;;5.22;2.03;;;18.80;99.90;;;;;;5033050;28;20036;-78
2022/07/30 04:54:08;;;;;;;7.22;2.30;;;18.80;99.90;;;;;;5028271;28;20029;-79
2022/07/30 04:56:36;;;;;;;5.53;2.70;;;18.80;99.90;;;;;;5047016;28;20025;-78
2022/07/30 04:59:02;;;;;;;5.25;2.65;;;18.80;99.90;;;;;;5045576;28;20071;-78
2022/07/30 05:01:34;;;;;;;6.47;2.53;;;18.80;99.90;;;;;;5012806;28;20025;-78
2022/07/30 05:04:00;;;;;;;9.18;2.45;;;18.80;99.90;;;;;;5049094;28;20043;-79
2022/07/30 05:06:27;;;;;;;6.03;2.40;;;18.80;99.90;;;;;;5049101;28;20048;-79
2022/07/30 05:08:53;;;;;;;4.50;2.28;;;18.80;99.90;;;;;;5047350;28;20135;-78
2022/07/30 05:11:19;;;;;;;7.63;2.40;;;18.80;99.90;;;;;;5031262;28;20079;-76
2022/07/30 05:13:48;;;;;;;4.43;2.30;;;18.80;99.90;;;;;;5052643;28;20020;-77
2022/07/30 05:16:14;;;;;;;6.10;2.03;;;18.80;99.90;;;;;;5053707;28;20116;-77
2022/07/30 05:18:40;;;;;;;3.90;2.20;;;18.80;99.90;;;;;;5039219;28;20040;-79
2022/07/30 05:21:07;;;;;;;8.73;3.08;;;18.80;99.90;;;;;;5050402;28;20033;-78
2022/07/30 05:23:33;;;;;;;5.65;2.13;;;18.80;99.90;;;;;;5018691;28;20064;-78
2022/07/30 05:25:58;;;;;;;3.65;2.42;;;18.80;99.90;;;;;;5046224;28;20053;-78
2022/07/30 05:28:27;;;;;;;9.70;2.40;;;18.80;99.90;;;;;;5047334;28;21693;-78
2022/07/30 05:30:54;;;;;;;3.97;2.00;;;18.80;99.90;;;;;;5047821;28;20021;-77
2022/07/30 05:33:21;;;;;;;5.45;2.05;;;18.80;99.90;;;;;;5053542;28;20374;-78
2022/07/30 05:35:47;;;;;;;3.85;2.10;;;18.80;99.90;;;;;;5049172;28;20064;-80
2022/07/30 05:38:14;;;;;;;3.45;2.22;;;18.80;99.90;;;;;;5041353;28;20135;-78
2022/07/30 05:40:40;;;;;;;3.28;2.10;;;18.80;99.90;;;;;;5033429;28;20127;-78
2022/07/30 05:43:05;;;;;;;6.78;2.60;;;18.80;99.90;;;;;;5031852;28;20025;-79
2022/07/30 05:45:31;;;;;;;3.92;2.30;;;18.70;99.90;;;;;;5039015;28;20040;-80
2022/07/30 05:47:57;;;;;;;4.63;2.55;;;18.80;99.90;;;;;;5032683;28;20771;-78
2022/07/30 05:50:23;;;;;;;4.63;2.30;;;18.70;99.90;;;;;;5049691;28;20033;-78
2022/07/30 05:52:49;;;;;;;6.00;2.10;;;18.80;99.90;;;;;;5052472;28;20044;-78
2022/07/30 05:55:14;;;;;;;4.03;2.15;;;18.80;99.90;;;;;;5032480;28;20060;-77
2022/07/30 05:57:41;;;;;;;4.05;2.40;;;18.80;99.90;;;;;;5051207;28;20057;-77
2022/07/30 06:00:09;;;;;;;4.80;2.00;;;18.70;99.90;;;;;;5047859;28;20052;-78
2022/07/30 06:02:35;;;;;;;4.43;2.58;;;18.80;99.90;;;;;;5031417;28;20029;-78
2022/07/30 06:05:01;;;;;;;4.05;2.30;;;18.80;99.90;;;;;;5032787;28;20033;-78
2022/07/30 06:07:27;;;;;;;5.13;2.50;;;18.80;99.90;;;;;;5051458;28;20029;-79
2022/07/30 06:09:53;;;;;;;4.72;2.40;;;18.80;99.90;;;;;;5049721;28;20033;-78
2022/07/30 06:12:19;;;;;;;6.57;2.40;;;18.80;99.90;;;;;;5049545;28;20025;-78
2022/07/30 06:14:44;;;;;;;5.30;2.28;;;18.80;99.90;;;;;;5044446;28;20033;-78
2022/07/30 06:17:11;;;;;;;5.35;2.17;;;18.80;99.90;;;;;;5053097;28;20788;-79
2022/07/30 06:19:37;;;;;;;3.45;1.70;;;18.90;99.90;;;;;;5035622;28;20050;-77
2022/07/30 06:22:03;;;;;;;3.60;2.20;;;18.90;99.90;;;;;;5044489;28;20511;-79
2022/07/30 06:24:29;;;;;;;5.10;2.20;;;18.90;99.90;;;;;;5028667;28;20079;-77
2022/07/30 06:26:55;;;;;;;4.93;2.60;;;18.90;99.90;;;;;;5036444;28;20501;-77
2022/07/30 06:29:20;;;;;;;4.25;2.35;;;18.90;99.90;;;;;;5033114;28;20071;-78
2022/07/30 06:31:46;;;;;;;11.40;2.65;;;18.90;99.90;;;;;;5048007;28;20033;-77
2022/07/30 06:34:12;;;;;;;3.95;2.25;;;18.90;99.90;;;;;;5031950;28;20036;-77
2022/07/30 06:36:37;;;;;;;3.50;2.20;;;18.90;99.90;;;;;;5031330;28;20045;-77
2022/07/30 06:39:03;;;;;;;6.45;2.20;;;18.90;99.90;;;;;;5049761;28;20033;-77
2022/07/30 06:41:29;;;;;;;6.03;2.35;;;18.90;99.90;;;;;;5031464;28;20025;-77
2022/07/30 06:43:54;;;;;;;4.00;2.05;;;18.90;99.90;;;;;;5032914;28;20036;-77
2022/07/30 06:46:20;;;;;;;6.65;2.63;;;18.90;99.90;;;;;;5047556;28;20033;-77
2022/07/30 06:48:45;;;;;;;4.85;2.50;;;18.90;99.90;;;;;;5032961;28;20032;-78
2022/07/30 06:51:11;;;;;;;4.82;2.03;;;19.00;99.90;;;;;;5044425;28;20033;-77
2022/07/30 06:53:37;;;;;;;4.07;2.13;;;19.00;99.90;;;;;;5029427;28;20032;-77
2022/07/30 06:56:03;;;;;;;4.47;2.30;;;19.00;99.90;;;;;;5024288;28;20032;-77
2022/07/30 06:58:28;;;;;;;3.58;2.10;;;19.00;99.90;;;;;;5034568;28;20037;-78
2022/07/30 07:00:54;;;;;;;7.60;2.40;;;19.00;99.90;;;;;;5048359;28;20059;-77
2022/07/30 07:03:20;;;;;;;7.85;2.30;;;19.00;99.90;;;;;;5008044;28;20052;-78
2022/07/30 07:05:46;;;;;;;7.53;2.33;;;19.00;99.90;;;;;;5029484;28;20036;-78
2022/07/30 07:08:11;;;;;;;3.85;2.20;;;19.00;99.90;;;;;;5047326;28;20513;-78
2022/07/30 07:10:37;;;;;;;7.57;2.60;;;19.00;99.90;;;;;;5051257;28;20165;-77
2022/07/30 07:13:03;;;;;;;4.68;2.22;;;19.00;99.90;;;;;;5030490;28;20021;-76
2022/07/30 07:15:28;;;;;;;5.18;2.40;;;19.00;99.90;;;;;;5040883;28;20044;-76
2022/07/30 07:17:54;;;;;;;4.25;2.55;;;19.10;99.90;;;;;;5045948;28;20130;-73
2022/07/30 07:20:20;;;;;;;3.25;2.30;;;19.10;99.90;;;;;;5032302;28;20033;-74
2022/07/30 07:22:45;;;;;;;5.43;2.60;;;19.10;99.90;;;;;;5032031;28;20873;-72
2022/07/30 07:25:11;;;;;;;5.13;2.78;;;19.10;99.90;;;;;;5014480;28;20482;-75
2022/07/30 07:27:41;;;;;;;6.35;2.80;;;19.10;99.90;;;;;;5013849;28;20561;-74
2022/07/30 07:30:08;;;;;;;5.65;2.65;;;19.20;99.90;;;;;;5051310;28;20493;-75
2022/07/30 07:32:43;;;;;;;5.75;2.83;;;19.20;99.90;;;;;;5046976;28;20196;-78
2022/07/30 07:35:18;;;;;;;8.95;2.63;;;19.20;99.90;;;;;;5049742;28;20036;-78
2022/07/30 07:37:44;;;;;;;6.45;2.63;;;19.30;99.90;;;;;;5039268;28;20024;-78
2022/07/30 07:40:10;;;;;;;4.25;2.83;;;19.30;99.90;;;;;;5037436;28;20076;-78
2022/07/30 07:42:35;;;;;;;7.30;2.80;;;19.40;99.90;;;;;;5019454;28;20029;-79
2022/07/30 07:45:01;;;;;;;4.20;2.78;;;19.40;99.90;;;;;;5045654;28;20063;-78
2022/07/30 07:47:28;;;;;;;4.50;2.35;;;19.40;99.90;;;;;;5052445;28;20120;-78
2022/07/30 07:49:54;;;;;;;5.35;3.15;;;19.40;99.90;;;;;;5015276;28;20513;-76
2022/07/30 07:52:20;;;;;;;6.78;2.70;;;19.50;99.90;;;;;;5046975;28;20033;-77
2022/07/30 07:54:46;;;;;;;5.85;3.00;;;19.60;99.90;;;;;;5047769;28;20029;-77
2022/07/30 07:57:15;;;;;;;5.75;2.63;;;19.60;99.90;;;;;;5048564;28;20590;-78
2022/07/30 07:59:41;;;;;;;4.28;2.50;;;19.60;99.90;;;;;;5057482;28;20040;-77
2022/07/30 08:02:07;;;;;;;4.97;2.88;;;19.70;99.90;;;;;;5052598;28;20515;-79
2022/07/30 08:04:33;;;;;;;5.55;3.20;;;19.70;99.90;;;;;;5059044;28;20024;-78
2022/07/30 08:06:59;;;;;;;6.18;3.40;;;19.70;99.90;;;;;;5067951;28;20036;-82
2022/07/30 08:09:24;;;;;;;8.10;3.22;;;19.70;99.90;;;;;;5044158;28;20033;-78
2022/07/30 08:11:50;;;;;;;7.47;3.38;;;19.70;99.90;;;;;;5032916;28;20423;-82
2022/07/30 08:14:17;;;;;;;7.55;3.13;;;19.80;99.90;;;;;;5046397;28;20021;-81
2022/07/30 08:16:42;;;;;;;6.38;3.25;;;19.80;99.90;;;;;;5046141;28;20104;-79
2022/07/30 08:19:08;;;;;;;8.95;3.22;;;19.90;99.90;;;;;;5047834;28;20501;-78
2022/07/30 08:21:34;;;;;;;7.25;2.97;;;19.90;99.90;;;;;;5047868;28;20025;-79
2022/07/30 08:24:00;;;;;;;5.60;3.33;;;20.00;99.90;;;;;;5050603;28;20064;-78
2022/07/30 08:26:26;;;;;;;4.28;3.17;;;20.00;99.90;;;;;;5044520;28;20029;-78
2022/07/30 08:28:52;;;;;;;6.47;3.50;;;20.00;99.90;;;;;;5050107;28;20031;-82
2022/07/30 08:31:17;;;;;;;10.82;4.00;;;20.10;99.90;;;;;;5030232;28;20025;-79
2022/07/30 08:33:43;;;;;;;5.13;3.95;;;20.10;99.90;;;;;;5032962;28;20052;-79
2022/07/30 08:36:09;;;;;;;6.38;3.85;;;20.20;99.90;;;;;;5013673;28;20028;-81
2022/07/30 08:38:35;;;;;;;9.20;4.25;;;20.20;99.90;;;;;;5022869;28;20568;-83
2022/07/30 08:41:00;;;;;;;6.43;3.78;;;20.20;99.90;;;;;;5027175;28;20037;-84
2022/07/30 08:43:27;;;;;;;5.57;3.10;;;20.30;99.90;;;;;;5033905;28;20036;-81
2022/07/30 08:45:56;;;;;;;7.18;3.80;;;20.40;99.90;;;;;;5045310;28;20092;-78
2022/07/30 08:48:23;;;;;;;7.25;2.95;;;20.40;99.90;;;;;;5047099;28;20547;-81
2022/07/30 08:50:51;;;;;;;8.85;3.75;;;20.50;99.90;;;;;;5014133;28;20156;-82
2022/07/30 08:53:17;;;;;;;4.72;2.80;;;20.50;99.90;;;;;;5021542;28;20036;-83
2022/07/30 08:55:44;;;;;;;6.35;3.10;;;20.50;99.90;;;;;;5038085;28;20033;-83
2022/07/30 08:58:27;;;;;;;8.60;3.08;;;20.60;99.90;;;;;;5029948;28;20266;-79
2022/07/30 09:00:55;;;;;;;3.92;2.47;;;20.60;99.90;;;;;;5024321;28;20033;-79
2022/07/30 09:03:21;;;;;;;6.40;3.45;;;20.60;99.90;;;;;;5044119;28;20033;-82
2022/07/30 09:05:46;;;;;;;5.90;2.97;;;20.70;99.90;;;;;;5024945;28;20040;-81
2022/07/30 09:08:15;;;;;;;5.63;2.72;;;20.70;99.90;;;;;;5022285;28;20033;-82
2022/07/30 09:10:43;;;;;;;6.63;3.20;;;20.80;99.90;;;;;;5025917;28;20066;-82
2022/07/30 09:13:26;;;;;;;6.18;3.00;;;20.80;99.90;;;;;;5026724;28;20021;-82
2022/07/30 09:15:52;;;;;;;7.50;3.30;;;20.80;99.90;;;;;;5040976;28;20558;-78
2022/07/30 09:18:35;;;;;;;6.43;3.47;;;20.70;99.90;;;;;;5040264;28;20033;-80
2022/07/30 09:21:24;;;;;;;8.00;3.10;;;20.80;99.90;;;;;;5019655;28;20142;-80
2022/07/30 09:24:11;;;;;;;7.05;3.20;;;20.70;99.90;;;;;;5046131;28;20029;-79
2022/07/30 09:26:58;;;;;;;8.52;3.65;;;20.80;99.90;;;;;;5012745;28;20066;-78
2022/07/30 09:29:28;;;;;;;6.88;3.20;;;20.90;99.90;;;;;;5052984;28;20037;-77
2022/07/30 09:31:58;;;;;;;9.60;3.90;;;20.90;99.90;;;;;;5035517;28;20094;-80
2022/07/30 09:34:31;;;;;;;7.55;3.55;;;20.80;99.90;;;;;;5032056;28;20151;-79
2022/07/30 09:36:59;;;;;;;8.05;4.07;;;20.80;99.90;;;;;;5034240;28;20027;-79
2022/07/30 09:39:35;;;;;;;8.43;3.60;;;20.90;99.90;;;;;;5053483;28;20025;-78
2022/07/30 09:42:02;;;;;;;9.07;4.10;;;21.00;99.90;;;;;;5032769;28;20029;-78
2022/07/30 09:44:29;;;;;;;10.45;4.45;;;21.00;99.90;;;;;;5060073;28;20025;-79
2022/07/30 09:46:56;;;;;;;5.32;3.65;;;21.00;99.90;;;;;;5032949;28;20115;-78
2022/07/30 09:49:24;;;;;;;7.63;4.00;;;21.00;99.90;;;;;;5030884;28;20108;-78
2022/07/30 09:51:51;;;;;;;7.50;4.15;;;21.10;99.90;;;;;;5048029;28;20520;-79
2022/07/30 09:54:18;;;;;;;7.30;3.53;;;21.10;99.90;;;;;;5047658;28;20044;-79
2022/07/30 09:56:45;;;;;;;6.00;3.65;;;21.10;99.90;;;;;;5032191;28;20079;-78
2022/07/30 09:59:33;;;;;;;4.95;3.20;;;21.20;99.90;;;;;;5018235;28;20087;-78
2022/07/30 10:02:01;;;;;;;5.60;3.60;;;21.30;99.90;;;;;;5036480;28;20053;-79
2022/07/30 10:04:31;;;;;;;5.35;3.20;;;21.30;99.90;;;;;;5020105;28;20434;-79
2022/07/30 10:07:01;;;;;;;8.00;3.50;;;21.30;99.90;;;;;;5036651;28;20025;-78
2022/07/30 10:09:35;;;;;;;4.85;3.10;;;21.40;99.90;;;;;;5036933;28;20435;-79
2022/07/30 10:12:16;;;;;;;4.55;3.17;;;21.40;99.90;;;;;;5033044;28;20120;-80
2022/07/30 10:14:45;;;;;;;6.35;3.20;;;21.40;99.90;;;;;;5036402;28;20044;-80
2022/07/30 10:17:11;;;;;;;21.58;4.22;;;21.40;99.90;;;;;;5035572;28;20122;-77
2022/07/30 10:19:38;;;;;;;6.60;3.20;;;21.50;99.90;;;;;;5034037;28;20029;-78
2022/07/30 10:22:04;;;;;;;8.07;3.97;;;21.60;99.90;;;;;;5053987;28;20496;-78
2022/07/30 10:27:21;;;;;;;5.25;3.55;;;21.60;99.90;;;;;;5052578;28;20186;-81
2022/07/30 10:29:48;;;;;;;9.00;3.63;;;21.70;99.90;;;;;;5049417;28;20420;-78
2022/07/30 10:32:14;;;;;;;4.78;3.55;;;21.70;99.90;;;;;;5047229;28;20017;-79
2022/07/30 10:34:40;;;;;;;6.53;3.47;;;21.90;99.90;;;;;;5029704;28;20047;-78
2022/07/30 10:37:06;;;;;;;6.35;3.28;;;22.00;99.90;;;;;;5031262;28;20029;-78
2022/07/30 10:39:48;;;;;;;4.57;2.70;;;22.00;99.90;;;;;;5048606;28;20512;-79
2022/07/30 10:42:13;;;;;;;6.22;3.38;;;22.10;99.90;;;;;;5050142;28;20041;-78
2022/07/30 10:44:51;;;;;;;5.75;3.10;;;22.00;99.90;;;;;;5050604;28;20718;-78
2022/07/30 10:47:19;;;;;;;8.35;3.33;;;22.10;99.90;;;;;;5051957;28;20037;-78
2022/07/30 10:50:05;;;;;;;6.53;3.28;;;22.20;99.90;;;;;;5048448;28;20108;-79
2022/07/30 10:52:59;;;;;;;8.95;3.33;;;22.30;99.90;;;;;;5051272;28;20029;-78
2022/07/30 10:55:36;;;;;;;7.70;3.53;;;22.30;99.90;;;;;;5047554;28;20565;-78
2022/07/30 10:58:11;;;;;;;6.18;3.17;;;22.30;99.90;;;;;;5048256;28;20086;-77
2022/07/30 11:00:51;;;;;;;6.18;3.45;;;22.50;99.90;;;;;;5051358;28;20029;-80
2022/07/30 11:03:26;;;;;;;6.70;2.70;;;22.70;99.90;;;;;;5028314;28;20045;-79
2022/07/30 11:06:14;;;;;;;5.47;3.47;;;22.90;99.90;;;;;;5031132;28;20033;-79
2022/07/30 11:08:44;;;;;;;7.65;3.35;;;23.10;99.90;;;;;;5024576;28;20288;-79
2022/07/30 11:11:36;;;;;;;5.85;3.00;;;23.30;99.90;;;;;;5041655;28;20095;-79
2022/07/30 11:14:03;;;;;;;5.63;2.92;;;23.30;99.90;;;;;;5039755;28;20041;-79
2022/07/30 11:16:31;;;;;;;6.40;3.10;;;23.40;99.90;;;;;;5014402;28;20390;-78
2022/07/30 11:19:19;;;;;;;5.57;2.92;;;23.30;99.90;;;;;;5041238;28;20122;-76
2022/07/30 11:22:06;;;;;;;4.93;2.80;;;23.50;99.90;;;;;;5044727;28;20057;-75
2022/07/30 11:24:42;;;;;;;16.23;3.70;;;23.90;99.90;;;;;;5025804;28;20163;-77
2022/07/30 11:27:08;;;;;;;5.22;2.92;;;24.30;99.90;;;;;;5045756;28;20028;-78
2022/07/30 11:29:40;;;;;;;6.18;2.50;;;25.60;99.90;;;;;;5043948;28;20029;-77
2022/07/30 11:32:32;;;;;;;9.63;2.95;;;26.90;98.50;;;;;;5035730;28;20241;-78
2022/07/30 11:35:24;;;;;;;5.93;2.53;;;27.50;96.40;;;;;;5057926;28;20500;-79
2022/07/30 11:38:10;;;;;;;7.30;3.10;;;28.50;93.60;;;;;;5044270;28;20043;-79
2022/07/30 11:40:44;;;;;;;3.88;2.20;;;29.80;90.10;;;;;;5048503;28;20494;-78
2022/07/30 11:43:24;;;;;;;4.88;2.75;;;30.60;83.20;;;;;;5029380;28;20186;-78
2022/07/30 11:46:03;;;;;;;8.07;3.08;;;31.80;77.80;;;;;;5029751;28;20473;-78
2022/07/30 11:48:29;;;;;;;3.05;2.10;;;32.00;72.40;;;;;;5049002;28;20033;-79
2022/07/30 11:50:55;;;;;;;5.13;2.28;;;32.20;70.10;;;;;;5047961;28;20044;-78
2022/07/30 11:53:21;;;;;;;6.80;2.20;;;31.30;67.70;;;;;;5027225;28;20036;-79
2022/07/30 11:55:54;;;;;;;6.75;2.30;;;30.80;67.60;;;;;;5023549;28;20039;-78
2022/07/30 11:58:33;;;;;;;4.03;2.25;;;30.50;68.60;;;;;;5042437;28;20101;-76
2022/07/30 12:01:05;;;;;;;7.63;2.63;;;30.10;69.00;;;;;;5041587;28;20036;-77
2022/07/30 12:03:32;;;;;;;5.03;2.53;;;29.30;71.50;;;;;;5041597;28;20061;-77
2022/07/30 12:06:12;;;;;;;4.65;2.40;;;28.40;73.50;;;;;;5041445;28;20021;-77
2022/07/30 12:08:43;;;;;;;7.05;2.70;;;28.00;74.60;;;;;;5025951;28;20036;-78
2022/07/30 12:11:09;;;;;;;5.10;2.63;;;27.50;76.20;;;;;;5040947;28;20504;-77
2022/07/30 12:13:35;;;;;;;3.83;2.25;;;27.20;76.50;;;;;;5046637;28;20029;-78
2022/07/30 12:16:08;;;;;;;4.72;2.33;;;27.00;78.10;;;;;;5042409;28;20043;-77
2022/07/30 12:18:34;;;;;;;5.70;2.83;;;26.90;79.60;;;;;;5043495;28;20021;-76
2022/07/30 12:21:01;;;;;;;4.57;2.22;;;26.60;81.40;;;;;;5026393;28;20112;-77
2022/07/30 12:23:27;;;;;;;4.57;2.20;;;26.30;81.00;;;;;;5047616;28;20041;-77
2022/07/30 12:25:53;;;;;;;8.35;2.88;;;26.20;80.90;;;;;;5055585;28;20116;-78
2022/07/30 12:28:21;;;;;;;8.68;3.30;;;26.00;81.50;;;;;;5054725;28;20035;-77
2022/07/30 12:30:47;;;;;;;5.43;2.88;;;25.90;84.00;;;;;;5045236;28;20531;-77
2022/07/30 12:33:13;;;;;;;5.50;2.63;;;25.80;84.30;;;;;;5047343;28;20075;-76
2022/07/30 12:35:47;;;;;;;7.63;2.75;;;25.90;83.70;;;;;;5026191;28;20060;-76
2022/07/30 12:38:14;;;;;;;4.35;2.78;;;26.00;85.30;;;;;;5013335;28;20033;-76
2022/07/30 12:41:00;;;;;;;5.28;2.85;;;26.10;85.70;;;;;;5028603;28;20681;-77
2022/07/30 12:43:59;;;;;;;4.35;2.58;;;26.00;86.60;;;;;;5028971;28;20052;-76
2022/07/30 12:46:26;;;;;;;8.07;2.72;;;25.80;87.10;;;;;;5004211;28;20096;-77
2022/07/30 12:48:54;;;;;;;3.90;2.78;;;25.70;87.00;;;;;;5026381;28;20685;-76
2022/07/30 12:51:21;;;;;;;8.75;2.78;;;25.50;86.30;;;;;;5010947;28;20024;-77
2022/07/30 12:53:47;;;;;;;5.40;2.58;;;25.50;87.40;;;;;;5023531;28;20021;-77
2022/07/30 12:56:24;;;;;;;4.57;2.85;;;25.50;87.70;;;;;;5045259;28;20512;-75
2022/07/30 12:58:51;;;;;;;5.40;3.08;;;25.50;89.70;;;;;;5034546;28;20037;-77